Time;durP1;ratioP1;P1;durP2;ratioP2;P2;SDS_P1;SDS_P2;PMS_P1;PMS_P2;Temp;Humidity;BMP_temperature;BMP_pressure;BME280_temperature;BME280_humidity;BME280_pressure;Samples;Min_cycle;Max_cycle;Signal;HPM_P1;HPM_P2
2021/01/19 00:00:34;;;;;;;88.33;37.03;;;;;;;-12.45;53.35;96796.98;1729173;83;21103;-55
2021/01/19 00:03:02;;;;;;;98.93;36.17;;;;;;;-12.34;53.36;96807.62;1717973;83;21202;-55
2021/01/19 00:05:29;;;;;;;93.67;38.42;;;;;;;-12.23;53.09;96802.45;1676794;85;21153;-56
2021/01/19 00:07:57;;;;;;;78.23;31.23;;;;;;;-12.16;52.90;96800.51;1720279;83;22295;-56
2021/01/19 00:10:25;;;;;;;71.90;30.55;;;;;;;-12.20;53.00;96796.65;1718032;83;21132;-56
2021/01/19 00:12:53;;;;;;;73.83;29.40;;;;;;;-12.19;52.88;96804.61;1728337;83;21551;-55
2021/01/19 00:15:20;;;;;;;61.07;28.33;;;;;;;-12.09;52.78;96802.73;1677416;85;21187;-57
2021/01/19 00:17:48;;;;;;;73.47;30.27;;;;;;;-11.99;52.21;96797.52;1724032;83;21250;-56
2021/01/19 00:20:16;;;;;;;74.93;32.00;;;;;;;-12.08;52.10;96806.52;1723555;82;21590;-55
2021/01/19 00:22:43;;;;;;;75.57;30.60;;;;;;;-12.16;52.23;96806.76;1703402;82;21195;-55
2021/01/19 00:25:12;;;;;;;82.57;33.00;;;;;;;-12.08;52.39;96808.19;1693729;82;21516;-56
2021/01/19 00:27:40;;;;;;;86.67;34.00;;;;;;;-11.98;52.33;96803.80;1690489;82;21186;-54
2021/01/19 00:30:09;;;;;;;83.97;33.87;;;;;;;-11.87;52.15;96809.84;1727140;81;21565;-54
2021/01/19 00:32:37;;;;;;;83.90;34.27;;;;;;;-11.79;51.76;96811.27;1734487;81;22185;-55
2021/01/19 00:35:07;;;;;;;87.53;35.37;;;;;;;-11.72;51.44;96803.47;1725138;81;21509;-55
2021/01/19 00:37:34;;;;;;;88.20;35.50;;;;;;;-11.63;51.10;96806.13;1730230;81;21127;-55
2021/01/19 00:40:03;;;;;;;88.87;35.60;;;;;;;-11.54;50.71;96801.73;1740848;82;21483;-55
2021/01/19 00:42:31;;;;;;;84.60;32.83;;;;;;;-11.47;50.44;96799.77;1740735;81;21066;-55
2021/01/19 00:44:58;;;;;;;86.97;35.10;;;;;;;-11.41;50.21;96796.14;1741088;82;21578;-55
2021/01/19 00:47:26;;;;;;;96.30;35.77;;;;;;;-11.38;50.17;96794.08;1740743;82;21177;-55
2021/01/19 00:49:54;;;;;;;90.47;36.13;;;;;;;-11.40;50.16;96796.55;1740817;81;21190;-55
2021/01/19 00:52:22;;;;;;;82.00;34.47;;;;;;;-11.43;50.13;96799.42;1740909;81;21511;-55
2021/01/19 00:54:50;;;;;;;106.12;41.42;;;;;;;-11.39;50.08;96792.41;1741102;82;21086;-55
2021/01/19 00:57:18;;;;;;;115.17;42.27;;;;;;;-11.38;50.30;96791.19;1741049;82;21612;-55
2021/01/19 00:59:49;;;;;;;120.93;44.57;;;;;;;-11.37;50.29;96783.26;1740722;80;21851;-55
2021/01/19 01:02:17;;;;;;;123.80;43.90;;;;;;;-11.44;50.67;96779.80;1740732;82;21126;-55
2021/01/19 01:04:45;;;;;;;133.67;48.73;;;;;;;-11.63;51.01;96782.35;1740867;82;26691;-55
2021/01/19 01:07:12;;;;;;;128.70;46.87;;;;;;;-11.76;51.49;96786.69;1740579;81;21137;-55
2021/01/19 01:09:41;;;;;;;135.60;49.10;;;;;;;-11.75;52.01;96783.38;1740844;82;21372;-55
2021/01/19 01:12:09;;;;;;;130.00;44.60;;;;;;;-11.63;52.24;96774.84;1740829;82;21568;-55
2021/01/19 01:14:37;;;;;;;117.65;42.08;;;;;;;-11.53;51.76;96776.73;1741078;82;26712;-55
2021/01/19 01:17:04;;;;;;;131.27;46.70;;;;;;;-11.47;51.55;96771.81;1740643;82;21078;-54
2021/01/19 01:19:32;;;;;;;133.47;48.55;;;;;;;-11.43;51.64;96772.73;1735356;81;21486;-54
2021/01/19 01:22:00;;;;;;;133.05;46.88;;;;;;;-11.29;51.81;96771.30;1738092;82;22368;-54
2021/01/19 01:24:28;;;;;;;118.67;44.00;;;;;;;-11.18;51.69;96760.64;1737872;82;21130;-55
2021/01/19 01:26:55;;;;;;;116.93;43.10;;;;;;;-11.09;51.40;96768.30;1737903;82;21162;-55
2021/01/19 01:29:23;;;;;;;118.83;44.87;;;;;;;-11.03;51.05;96765.91;1737626;82;21071;-55
2021/01/19 01:31:50;;;;;;;113.70;41.37;;;;;;;-10.96;50.66;96759.33;1737943;81;21066;-55
2021/01/19 01:34:18;;;;;;;94.83;37.67;;;;;;;-10.92;50.76;96756.03;1737949;82;21582;-55
2021/01/19 01:36:46;;;;;;;91.93;36.20;;;;;;;-10.90;50.50;96753.17;1737831;82;21166;-55
2021/01/19 01:39:13;;;;;;;82.53;34.40;;;;;;;-10.92;49.94;96750.63;1737918;82;21502;-55
2021/01/19 01:41:42;;;;;;;95.45;35.75;;;;;;;-10.93;49.94;96756.88;1737935;82;21058;-55
2021/01/19 01:44:09;;;;;;;82.67;34.40;;;;;;;-10.94;49.80;96752.28;1738063;81;21594;-55
2021/01/19 01:46:37;;;;;;;98.15;38.17;;;;;;;-10.96;49.95;96741.78;1738204;82;21618;-55
2021/01/19 01:49:05;;;;;;;75.72;32.73;;;;;;;-10.92;50.71;96748.52;1738198;81;21083;-55
2021/01/19 01:51:33;;;;;;;78.07;33.37;;;;;;;-10.86;50.60;96744.03;1738042;82;21086;-55
2021/01/19 01:54:03;;;;;;;73.97;33.10;;;;;;;-10.83;50.21;96742.41;1738388;82;21085;-55
2021/01/19 01:56:30;;;;;;;92.90;37.27;;;;;;;-10.80;50.00;96738.70;1738101;81;21506;-56
2021/01/19 01:58:59;;;;;;;103.00;40.93;;;;;;;-10.72;49.97;96735.45;1737974;82;23603;-55
2021/01/19 02:01:26;;;;;;;92.17;37.93;;;;;;;-10.70;49.75;96735.09;1738192;82;27965;-55
2021/01/19 02:03:54;;;;;;;87.60;36.83;;;;;;;-10.73;49.78;96729.60;1737899;81;21079;-54
2021/01/19 02:06:21;;;;;;;86.77;36.07;;;;;;;-10.74;50.26;96734.17;1737976;82;21505;-56
2021/01/19 02:09:12;;;;;;;98.20;38.97;;;;;;;-10.72;50.41;96733.80;1737756;82;21106;-55
2021/01/19 02:14:40;;;;;;;71.00;31.37;;;;;;;-10.67;50.60;96731.34;1852553;76;22367;-56
2021/01/19 02:17:26;;;;;;;82.03;33.20;;;;;;;-10.72;51.16;96728.79;1840889;77;20929;-55
2021/01/19 02:20:34;;;;;;;86.83;33.37;;;;;;;-10.80;52.00;96722.82;1834199;77;21930;-56
2021/01/19 02:23:36;;;;;;;70.52;30.02;;;;;;;-10.82;51.69;96721.93;1831770;78;21483;-55
2021/01/19 02:26:38;;;;;;;84.80;35.93;;;;;;;-10.77;52.57;96724.13;1797647;78;21138;-54
2021/01/19 02:29:46;;;;;;;72.90;29.93;;;;;;;-10.67;51.92;96724.69;1824246;77;21126;-55
2021/01/19 02:32:25;;;;;;;75.65;31.07;;;;;;;-10.72;52.78;96722.52;1812702;78;21582;-55
2021/01/19 02:35:17;;;;;;;65.50;27.27;;;;;;;-10.57;53.52;96720.23;1838107;77;21880;-54
2021/01/19 02:38:26;;;;;;;55.77;23.27;;;;;;;-10.37;53.46;96724.25;1838278;76;21130;-55
2021/01/19 02:40:54;;;;;;;;;;;;;;;-10.25;53.58;96714.76;1791345;78;21130;-54
2021/01/19 02:43:25;;;;;;;48.55;20.43;;;;;;;-10.02;54.04;96717.55;1833059;77;20208;-55
2021/01/19 02:45:53;;;;;;;36.77;16.60;;;;;;;-9.84;54.11;96718.18;1790055;79;21051;-55
2021/01/19 02:48:25;;;;;;;48.63;21.75;;;;;;;-9.61;54.11;96720.11;1816488;78;22259;-55
2021/01/19 02:50:53;;;;;;;60.93;26.60;;;;;;;-9.40;53.83;96714.89;1837051;78;21107;-55
2021/01/19 02:53:21;;;;;;;51.98;24.20;;;;;;;-9.21;53.88;96717.14;1819472;78;21063;-56
2021/01/19 02:55:49;;;;;;;54.40;25.70;;;;;;;-9.10;53.54;96715.56;1748910;80;21076;-54
2021/01/19 02:58:43;;;;;;;49.53;22.60;;;;;;;-9.00;53.58;96712.29;1742952;81;21128;-54
2021/01/19 03:01:24;;;;;;;49.90;23.67;;;;;;;-8.85;53.50;96717.84;1754832;81;22324;-54
2021/01/19 03:03:51;;;;;;;65.53;28.63;;;;;;;-8.84;53.58;96716.20;1745886;81;21587;-55
2021/01/19 03:06:20;;;;;;;59.20;27.13;;;;;;;-8.74;53.75;96719.20;1782805;79;21031;-56
2021/01/19 03:08:48;;;;;;;69.40;29.52;;;;;;;-8.63;53.67;96718.86;1779551;79;21071;-55
2021/01/19 03:11:18;;;;;;;60.57;28.37;;;;;;;-8.52;53.41;96721.04;1748055;80;21099;-54
2021/01/19 03:13:47;;;;;;;45.13;20.93;;;;;;;-8.46;53.28;96715.62;1789246;79;21377;-54
2021/01/19 03:16:17;;;;;;;62.38;28.20;;;;;;;-8.41;52.99;96716.02;1775056;79;21579;-56
2021/01/19 03:18:46;;;;;;;54.33;24.37;;;;;;;-8.36;52.88;96709.77;1787094;80;21147;-54
2021/01/19 03:21:14;;;;;;;54.43;22.97;;;;;;;-8.28;52.63;96711.07;1781640;79;21170;-54
2021/01/19 03:23:43;;;;;;;57.75;24.12;;;;;;;-8.28;52.46;96708.13;1782474;80;21064;-54
2021/01/19 03:26:10;;;;;;;53.83;24.27;;;;;;;-8.32;52.60;96706.02;1763656;80;22766;-56
2021/01/19 03:28:39;;;;;;;59.00;25.10;;;;;;;-8.36;52.67;96696.75;1760430;80;21252;-54
2021/01/19 03:31:07;;;;;;;54.50;25.52;;;;;;;-8.44;52.76;96702.19;1773994;80;21067;-55
2021/01/19 03:33:35;;;;;;;48.63;21.95;;;;;;;-8.43;52.66;96706.83;1788814;80;21135;-54
2021/01/19 03:36:05;;;;;;;41.58;19.37;;;;;;;-8.42;52.28;96705.55;1790025;79;21179;-54
2021/01/19 03:38:34;;;;;;;43.02;21.00;;;;;;;-8.41;52.15;96701.34;1790760;79;21199;-55
2021/01/19 03:41:02;;;;;;;41.93;21.50;;;;;;;-8.41;51.92;96701.34;1770412;79;21087;-55
2021/01/19 03:43:32;;;;;;;48.55;22.73;;;;;;;-8.50;51.76;96700.92;1779479;80;21155;-55
2021/01/19 03:46:00;;;;;;;44.55;21.07;;;;;;;-8.58;52.13;96696.26;1778460;80;21071;-55
2021/01/19 03:48:27;;;;;;;45.73;21.23;;;;;;;-8.71;52.62;96697.42;1773383;80;21570;-55
2021/01/19 03:50:54;;;;;;;49.30;21.20;;;;;;;-8.75;52.91;96691.95;1774674;80;21930;-55
2021/01/19 03:53:22;;;;;;;41.10;19.52;;;;;;;-8.70;53.01;96691.57;1783504;79;21111;-55
2021/01/19 03:55:51;;;;;;;41.95;19.98;;;;;;;-8.62;52.90;96694.54;1759829;81;21468;-55
2021/01/19 03:58:18;;;;;;;41.73;19.32;;;;;;;-8.53;52.66;96697.12;1760372;80;21483;-55
2021/01/19 04:00:47;;;;;;;44.75;19.52;;;;;;;-8.53;52.54;96698.38;1785734;80;21547;-55
2021/01/19 04:03:14;;;;;;;39.23;18.53;;;;;;;-8.50;52.23;96702.18;1782097;79;21442;-55
2021/01/19 04:05:42;;;;;;;38.67;18.23;;;;;;;-8.44;52.18;96700.94;1770426;80;21148;-54
2021/01/19 04:08:10;;;;;;;41.17;19.83;;;;;;;-8.38;52.06;96699.69;1782791;79;21325;-55
2021/01/19 04:10:39;;;;;;;35.33;15.60;;;;;;;-8.28;51.75;96697.23;1760044;80;21076;-55
2021/01/19 04:13:07;;;;;;;31.25;15.08;;;;;;;-8.55;50.97;96689.56;1759072;80;21207;-54
2021/01/19 04:15:34;;;;;;;33.20;15.97;;;;;;;-9.09;51.83;96687.09;1770711;79;21445;-55
2021/01/19 04:18:02;;;;;;;31.57;14.10;;;;;;;-9.40;52.74;96688.50;1764597;80;21179;-54
2021/01/19 04:20:30;;;;;;;29.67;14.45;;;;;;;-9.69;53.34;96687.79;1780412;80;21056;-54
2021/01/19 04:22:59;;;;;;;36.15;16.40;;;;;;;-10.09;54.19;96688.62;1760085;80;21488;-56
2021/01/19 04:25:26;;;;;;;32.00;15.05;;;;;;;-10.41;55.13;96685.30;1761600;80;21131;-55
2021/01/19 04:27:54;;;;;;;31.47;16.57;;;;;;;-10.56;55.80;96689.71;1768324;80;21163;-55
2021/01/19 04:30:23;;;;;;;30.10;15.20;;;;;;;-10.41;56.22;96683.66;1769205;80;21492;-54
2021/01/19 04:32:50;;;;;;;35.03;17.80;;;;;;;-10.06;56.19;96684.89;1780341;80;21513;-55
2021/01/19 04:35:18;;;;;;;29.43;14.57;;;;;;;-9.77;56.02;96680.16;1755981;80;21058;-54
2021/01/19 04:37:46;;;;;;;32.33;16.05;;;;;;;-9.48;55.76;96679.20;1779463;80;25579;-54
2021/01/19 04:40:15;;;;;;;30.17;15.37;;;;;;;-9.21;55.24;96676.53;1758017;80;21384;-54
2021/01/19 04:42:43;;;;;;;33.15;16.75;;;;;;;-9.10;54.91;96669.89;1760976;80;21139;-54
2021/01/19 04:45:12;;;;;;;30.90;15.40;;;;;;;-9.06;55.01;96673.30;1784750;80;21093;-54
2021/01/19 04:47:39;;;;;;;;;;;;;;;-8.93;54.78;96660.38;1772379;79;21071;-54
2021/01/19 04:50:09;;;;;;;33.88;16.07;;;;;;;-8.80;54.21;96663.42;1761985;80;20847;-54
2021/01/19 04:52:45;;;;;;;32.03;17.30;;;;;;;-8.66;54.48;96671.47;1756210;80;21205;-54
2021/01/19 04:55:22;;;;;;;37.73;17.17;;;;;;;-8.45;54.58;96678.27;1763195;80;21472;-53
2021/01/19 04:57:59;;;;;;;37.03;17.12;;;;;;;-8.21;54.47;96669.55;1755593;80;21091;-54
2021/01/19 05:00:36;;;;;;;37.15;17.52;;;;;;;-7.97;54.27;96672.59;1757404;80;21564;-54
2021/01/19 05:03:18;;;;;;;37.85;17.62;;;;;;;-7.74;54.16;96663.02;1764591;79;21171;-54
2021/01/19 05:06:01;;;;;;;38.98;18.67;;;;;;;-7.54;53.84;96661.79;1755913;81;21283;-54
2021/01/19 05:08:42;;;;;;;37.53;18.57;;;;;;;-7.34;53.50;96659.72;1743874;80;21057;-54
2021/01/19 05:11:24;;;;;;;34.95;17.15;;;;;;;-7.23;53.65;96666.88;1751636;81;21068;-54
2021/01/19 05:14:02;;;;;;;34.20;17.15;;;;;;;-7.07;53.65;96666.04;1759074;80;21092;-55
2021/01/19 05:16:35;;;;;;;29.55;16.27;;;;;;;-6.99;53.37;96669.83;1778006;80;21056;-55
2021/01/19 05:19:05;;;;;;;34.50;16.97;;;;;;;-6.93;53.76;96671.50;1773314;80;21438;-55
2021/01/19 05:21:39;;;;;;;32.48;17.02;;;;;;;-6.85;53.70;96679.47;1784459;79;21540;-55
2021/01/19 05:24:08;;;;;;;31.37;16.77;;;;;;;-6.78;53.43;96675.26;1776981;80;21107;-55
2021/01/19 05:26:35;;;;;;;34.92;18.45;;;;;;;-6.76;53.21;96676.13;1759261;80;21166;-55
2021/01/19 05:29:05;;;;;;;35.25;17.82;;;;;;;-6.77;53.06;96678.22;1768385;80;21191;-55
2021/01/19 05:31:33;;;;;;;29.45;16.27;;;;;;;-6.75;52.68;96672.73;1777305;79;21285;-55
2021/01/19 05:34:11;;;;;;;29.92;15.32;;;;;;;-6.69;52.44;96669.38;1778560;80;21172;-55
2021/01/19 05:36:48;;;;;;;32.78;16.48;;;;;;;-6.68;52.34;96658.42;1773252;80;21053;-55
2021/01/19 05:39:19;;;;;;;27.07;13.43;;;;;;;-6.61;52.48;96667.69;1774751;80;21159;-55
2021/01/19 05:41:51;;;;;;;27.40;15.35;;;;;;;-6.51;52.00;96661.77;1767260;80;21104;-54
2021/01/19 05:44:25;;;;;;;25.92;13.25;;;;;;;-6.42;52.54;96655.84;1755932;80;21194;-55
2021/01/19 05:47:03;;;;;;;21.05;11.70;;;;;;;-6.31;52.42;96656.66;1756025;80;21173;-55
2021/01/19 05:49:42;;;;;;;16.52;9.50;;;;;;;-6.21;52.13;96648.63;1775552;80;21048;-55
2021/01/19 05:52:12;;;;;;;20.68;10.72;;;;;;;-6.16;51.62;96652.41;1787143;80;21064;-54
2021/01/19 05:54:46;;;;;;;18.55;10.05;;;;;;;-6.14;51.80;96645.66;1777461;80;21202;-54
2021/01/19 05:57:16;;;;;;;18.37;10.40;;;;;;;-6.18;52.14;96651.15;1781323;79;21429;-54
2021/01/19 05:59:46;;;;;;;18.37;10.50;;;;;;;-6.18;52.59;96652.41;1754388;80;21175;-56
2021/01/19 06:02:18;;;;;;;15.85;9.20;;;;;;;-6.08;52.75;96649.86;1782801;80;21123;-56
2021/01/19 06:04:53;;;;;;;18.10;9.80;;;;;;;-6.02;52.96;96643.09;1777910;80;21135;-55
2021/01/19 06:07:25;;;;;;;15.55;8.90;;;;;;;-6.03;53.43;96638.88;1767682;80;21501;-54
2021/01/19 06:09:54;;;;;;;19.55;10.18;;;;;;;-5.96;53.84;96643.48;1760359;80;21197;-53
2021/01/19 06:12:22;;;;;;;15.50;9.95;;;;;;;-5.90;53.77;96642.16;1781359;80;21056;-54
2021/01/19 06:14:52;;;;;;;17.25;9.53;;;;;;;-5.82;53.50;96640.44;1767520;79;21131;-55
2021/01/19 06:17:22;;;;;;;45.70;24.75;;;;;;;-5.81;53.42;96634.52;1797400;78;21037;-55
2021/01/19 06:19:52;;;;;;;21.68;11.05;;;;;;;-5.75;54.21;96647.13;1779965;79;21112;-55
2021/01/19 06:22:22;;;;;;;16.32;9.75;;;;;;;-5.60;53.45;96644.94;1773909;79;21210;-55
2021/01/19 06:24:53;;;;;;;17.37;10.13;;;;;;;-5.54;52.85;96642.81;1760036;80;21097;-56
2021/01/19 06:27:26;;;;;;;20.08;10.10;;;;;;;-5.55;52.93;96644.91;1771045;79;21080;-55
2021/01/19 06:30:07;;;;;;;16.80;9.20;;;;;;;-5.48;52.86;96647.80;1756334;79;21140;-55
2021/01/19 06:32:40;;;;;;;18.65;11.10;;;;;;;-5.36;52.41;96647.73;1784797;79;21111;-55
2021/01/19 06:35:18;;;;;;;17.20;9.38;;;;;;;-5.23;51.39;96652.29;1766461;80;21461;-55
2021/01/19 06:37:49;;;;;;;19.35;9.78;;;;;;;-5.20;50.35;96650.14;1767461;81;21111;-55
2021/01/19 06:40:19;;;;;;;16.50;9.03;;;;;;;-5.24;50.36;96644.71;1780300;79;21114;-55
2021/01/19 06:43:02;;;;;;;17.00;10.05;;;;;;;-5.26;50.04;96651.05;1742799;79;21068;-55
2021/01/19 06:45:31;;;;;;;18.45;9.53;;;;;;;-5.30;50.06;96652.34;1806460;79;21041;-55
2021/01/19 06:50:38;;;;;;;16.80;10.27;;;;;;;-5.22;50.32;96653.95;1874625;76;22345;-55
2021/01/19 06:53:16;;;;;;;14.25;9.15;;;;;;;-5.25;50.51;96658.20;1830915;77;20914;-56
2021/01/19 06:56:01;;;;;;;19.42;10.60;;;;;;;-5.14;50.33;96656.87;1816543;78;21362;-55
2021/01/19 06:58:53;;;;;;;19.25;11.03;;;;;;;-5.02;50.61;96661.81;1816477;78;21009;-55
2021/01/19 07:01:27;;;;;;;17.50;10.20;;;;;;;-4.84;50.37;96663.36;1819815;78;21652;-56
2021/01/19 07:04:23;;;;;;;52.10;25.12;;;;;;;-4.73;50.29;96667.91;1822062;77;21030;-55
2021/01/19 07:07:06;;;;;;;69.70;34.13;;;;;;;-4.58;50.50;96671.98;1829561;77;21129;-54
2021/01/19 07:10:14;;;;;;;65.37;32.70;;;;;;;-4.54;50.97;96675.33;1815846;77;22231;-56
2021/01/19 07:13:03;;;;;;;68.02;32.23;;;;;;;-4.53;50.90;96674.48;1841486;77;20982;-56
2021/01/19 07:15:49;;;;;;;;;;;;;;;-4.55;50.24;96680.83;1844773;77;21183;-55
2021/01/19 07:19:02;;;;;;;61.15;28.57;;;;;;;-4.62;49.92;96682.58;1838899;77;20512;-55
2021/01/19 07:22:04;;;;;;;54.95;27.77;;;;;;;-4.70;50.32;96682.24;1849872;77;21056;-54
2021/01/19 07:24:41;;;;;;;58.65;28.57;;;;;;;-4.74;50.28;96682.67;1847228;77;22251;-55
2021/01/19 07:27:11;;;;;;;58.23;31.60;;;;;;;-4.89;50.28;96675.22;1813059;77;21629;-55
2021/01/19 07:29:38;;;;;;;61.37;32.05;;;;;;;-5.00;50.67;96679.95;1806197;77;21040;-55
2021/01/19 07:32:13;;;;;;;63.45;32.00;;;;;;;-5.00;50.66;96676.55;1793933;78;21065;-54
2021/01/19 07:34:41;;;;;;;65.97;33.42;;;;;;;-4.95;50.50;96677.79;1828310;77;21128;-55
2021/01/19 07:37:09;;;;;;;72.20;36.53;;;;;;;-4.91;50.57;96679.02;1822360;77;21319;-54
2021/01/19 07:39:38;;;;;;;60.30;31.12;;;;;;;-4.82;50.69;96674.30;1811019;77;21066;-54
2021/01/19 07:42:12;;;;;;;55.15;27.67;;;;;;;-4.72;50.79;96672.13;1830783;77;21053;-56
2021/01/19 07:44:42;;;;;;;41.75;21.93;;;;;;;-4.66;50.90;96677.11;1821088;77;21579;-56
2021/01/19 07:47:13;;;;;;;45.90;23.85;;;;;;;-4.56;50.87;96675.77;1849311;77;21215;-56
2021/01/19 07:49:42;;;;;;;45.92;23.87;;;;;;;-4.47;51.08;96666.39;1812043;77;22262;-56
2021/01/19 07:52:14;;;;;;;40.52;21.70;;;;;;;-4.40;51.02;96671.41;1799869;79;21159;-55
2021/01/19 07:54:42;;;;;;;27.37;14.60;;;;;;;-4.29;50.83;96663.27;1799985;78;21130;-55
2021/01/19 07:57:14;;;;;;;18.23;11.12;;;;;;;-4.19;50.48;96657.23;1772549;79;21642;-55
2021/01/19 07:59:44;;;;;;;17.60;10.23;;;;;;;-4.09;50.48;96658.80;1790039;77;21154;-55
2021/01/19 08:02:24;;;;;;;17.40;10.18;;;;;;;-3.92;50.16;96658.59;1767833;81;21755;-56
2021/01/19 08:05:01;;;;;;;17.15;11.12;;;;;;;-3.82;50.13;96659.76;1787948;79;21160;-56
2021/01/19 08:07:43;;;;;;;17.35;10.58;;;;;;;-3.72;50.14;96663.44;1769250;79;21096;-55
2021/01/19 08:10:27;;;;;;;16.50;9.60;;;;;;;-3.58;50.03;96660.70;1767891;81;21583;-56
2021/01/19 08:12:56;;;;;;;14.58;9.40;;;;;;;-3.48;49.99;96653.81;1774886;79;21103;-55
2021/01/19 08:15:31;;;;;;;16.85;10.08;;;;;;;-3.57;50.45;96662.39;1795749;79;22323;-55
2021/01/19 08:18:00;;;;;;;15.25;9.50;;;;;;;-3.75;51.73;96658.41;1799306;77;21112;-55
2021/01/19 08:20:33;;;;;;;17.42;10.35;;;;;;;-3.81;52.26;96652.13;1796738;79;21199;-55
2021/01/19 08:23:17;;;;;;;15.45;9.85;;;;;;;-3.78;52.58;96660.97;1799465;79;21598;-55
2021/01/19 08:25:45;;;;;;;17.27;10.48;;;;;;;-3.65;51.73;96658.27;1766157;79;21047;-56
2021/01/19 08:28:13;;;;;;;17.65;10.28;;;;;;;-3.66;51.87;96659.97;1761717;81;21375;-55
2021/01/19 08:30:44;;;;;;;19.37;10.48;;;;;;;-3.63;51.74;96652.77;1761593;80;21167;-55
2021/01/19 08:33:12;;;;;;;15.32;9.68;;;;;;;-3.50;51.88;96654.27;1762049;79;20937;-55
2021/01/19 08:35:41;;;;;;;15.35;9.58;;;;;;;-3.37;51.43;96650.70;1797793;79;23977;-55
2021/01/19 08:38:09;;;;;;;15.63;9.77;;;;;;;-3.33;51.62;96656.55;1771082;79;21074;-55
2021/01/19 08:40:37;;;;;;;13.95;9.18;;;;;;;-3.24;51.49;96652.63;1791386;79;21093;-55
2021/01/19 08:43:06;;;;;;;17.67;10.05;;;;;;;-3.12;51.34;96650.77;1777232;79;21516;-54
2021/01/19 08:45:41;;;;;;;17.17;10.28;;;;;;;-3.07;51.00;96647.72;1767765;81;21064;-56
2021/01/19 08:48:09;;;;;;;15.90;10.00;;;;;;;-3.09;51.08;96647.74;1766503;79;21048;-55
2021/01/19 08:50:41;;;;;;;15.25;9.58;;;;;;;-3.03;50.80;96651.43;1833625;77;21057;-55
2021/01/19 08:53:12;;;;;;;15.20;9.38;;;;;;;-2.86;50.41;96652.86;1847111;77;21330;-57
2021/01/19 08:55:45;;;;;;;15.83;9.28;;;;;;;-2.72;50.00;96650.11;1846981;77;21156;-55
2021/01/19 08:58:18;;;;;;;13.38;9.18;;;;;;;-2.45;49.69;96648.77;1841666;77;21065;-55
2021/01/19 09:00:46;;;;;;;17.12;10.08;;;;;;;-2.14;48.46;96643.98;1815804;79;21076;-55
2021/01/19 09:03:16;;;;;;;14.03;9.33;;;;;;;-2.01;47.96;96644.99;1812257;77;21533;-55
2021/01/19 09:05:45;;;;;;;14.30;9.33;;;;;;;-2.05;47.03;96650.58;1812191;79;21270;-55
2021/01/19 09:08:18;;;;;;;12.53;8.65;;;;;;;-2.14;47.01;96625.33;1815949;79;22030;-55
2021/01/19 09:10:46;;;;;;;16.10;10.40;;;;;;;-2.20;46.45;96630.52;1811258;77;21077;-55
2021/01/19 09:13:15;;;;;;;15.08;9.65;;;;;;;-2.44;46.71;96641.13;1816192;79;21064;-55
2021/01/19 09:15:43;;;;;;;15.05;10.08;;;;;;;-2.63;46.97;96640.63;1816233;79;21147;-55
2021/01/19 09:18:14;;;;;;;13.20;9.48;;;;;;;-2.75;47.28;96640.83;1815169;79;21369;-55
2021/01/19 09:20:42;;;;;;;15.90;9.55;;;;;;;-2.71;47.48;96636.11;1809866;79;21118;-56
2021/01/19 09:23:16;;;;;;;12.88;9.08;;;;;;;-2.53;47.32;96624.79;1783964;80;21099;-56
2021/01/19 09:25:45;;;;;;;15.68;9.45;;;;;;;-2.37;47.13;96630.85;1784083;80;21555;-55
2021/01/19 09:28:14;;;;;;;13.38;9.48;;;;;;;-2.13;46.90;96625.30;1795329;77;21156;-56
2021/01/19 09:30:42;;;;;;;13.90;9.43;;;;;;;-1.83;46.51;96626.81;1847166;77;21183;-55
2021/01/19 09:33:12;;;;;;;13.98;9.38;;;;;;;-1.63;46.02;96621.73;1836667;77;21192;-56
2021/01/19 09:35:41;;;;;;;14.83;10.00;;;;;;;-1.55;45.87;96612.23;1783962;80;21084;-55
2021/01/19 09:38:20;;;;;;;16.65;10.48;;;;;;;-1.58;45.67;96616.97;1790551;77;21052;-55
2021/01/19 09:40:48;;;;;;;14.95;9.90;;;;;;;-1.58;46.57;96622.47;1817938;77;21041;-54
2021/01/19 09:43:16;;;;;;;14.93;10.08;;;;;;;-1.43;46.00;96617.06;1816251;79;21457;-55
2021/01/19 09:45:44;;;;;;;16.62;10.08;;;;;;;-1.39;46.12;96614.00;1814442;79;21579;-54
2021/01/19 09:48:13;;;;;;;16.00;10.65;;;;;;;-1.42;46.88;96607.70;1801092;77;21081;-55
2021/01/19 09:50:40;;;;;;;15.85;10.10;;;;;;;-1.33;46.83;96601.14;1848350;77;21140;-55
2021/01/19 09:53:10;;;;;;;14.78;9.28;;;;;;;-1.32;46.88;96609.16;1828576;77;21194;-55
2021/01/19 09:55:38;;;;;;;17.37;10.25;;;;;;;-1.36;47.03;96591.03;1816624;77;21477;-56
2021/01/19 09:58:06;;;;;;;14.15;9.10;;;;;;;-1.40;47.36;96589.41;1818894;77;21052;-56
2021/01/19 10:00:39;;;;;;;17.65;10.63;;;;;;;-1.28;47.46;96589.14;1815937;79;21037;-55
2021/01/19 10:03:19;;;;;;;15.70;10.43;;;;;;;-1.09;47.11;96585.70;1796245;78;21121;-56
2021/01/19 10:06:07;;;;;;;17.82;10.78;;;;;;;-0.89;46.75;96585.20;1839818;77;21045;-55
2021/01/19 10:08:38;;;;;;;14.53;9.88;;;;;;;-0.51;46.06;96578.72;1842478;77;21366;-56
2021/01/19 10:11:06;;;;;;;13.72;9.93;;;;;;;-0.13;44.56;96569.17;1815703;79;21091;-55
2021/01/19 10:13:34;;;;;;;13.38;9.25;;;;;;;0.07;43.92;96560.97;1815790;78;21142;-55
2021/01/19 10:16:04;;;;;;;15.13;10.18;;;;;;;0.20;43.86;96549.52;1814924;79;21099;-55
2021/01/19 10:18:33;;;;;;;13.88;9.80;;;;;;;0.46;43.36;96555.53;1792104;77;21537;-56
2021/01/19 10:21:00;;;;;;;16.70;10.00;;;;;;;0.65;43.36;96549.41;1804882;77;21207;-55
2021/01/19 10:23:31;;;;;;;15.28;9.88;;;;;;;0.74;43.13;96537.64;1815855;79;21164;-55
2021/01/19 10:26:10;;;;;;;13.43;9.98;;;;;;;0.94;42.49;96547.63;1815798;79;21073;-55
2021/01/19 10:28:45;;;;;;;15.50;10.00;;;;;;;0.96;42.45;96539.03;1819495;77;21154;-55
2021/01/19 10:31:17;;;;;;;15.05;10.38;;;;;;;1.00;41.08;96538.03;1849179;77;21545;-55
2021/01/19 10:36:40;;;;;;;14.50;9.77;;;;;;;0.48;41.68;96535.91;1873572;76;22010;-55
2021/01/19 10:39:09;;;;;;;17.85;9.65;;;;;;;0.18;41.98;96538.50;1840822;77;20939;-55
2021/01/19 10:41:36;;;;;;;14.85;9.75;;;;;;;-0.13;42.78;96533.47;1841710;77;21348;-56
2021/01/19 10:44:05;;;;;;;13.15;9.43;;;;;;;-0.31;43.37;96520.39;1841633;78;21067;-56
2021/01/19 10:46:33;;;;;;;14.55;9.80;;;;;;;-0.34;43.40;96535.77;1841526;78;21066;-55
2021/01/19 10:49:06;;;;;;;13.98;9.35;;;;;;;-0.29;43.64;96527.99;1830837;78;21126;-57
2021/01/19 10:51:34;;;;;;;15.58;10.50;;;;;;;0.05;43.47;96522.75;1808663;78;21142;-55
2021/01/19 10:54:12;;;;;;;14.13;9.83;;;;;;;0.80;43.01;96520.81;1748936;82;21241;-54
2021/01/19 10:56:44;;;;;;;14.15;9.95;;;;;;;1.86;40.37;96520.15;1756638;80;21088;-56
2021/01/19 10:59:12;;;;;;;15.93;10.38;;;;;;;2.29;38.57;96508.73;1768173;79;21033;-54
2021/01/19 11:01:40;;;;;;;14.18;10.38;;;;;;;2.09;38.22;96497.95;1787836;80;21068;-57
2021/01/19 11:04:08;;;;;;;16.02;10.08;;;;;;;1.98;38.23;96507.34;1787622;80;21067;-55
2021/01/19 11:06:38;;;;;;;14.65;10.58;;;;;;;1.75;38.09;96510.75;1767175;79;22185;-55
2021/01/19 11:09:05;;;;;;;16.05;10.55;;;;;;;1.59;38.87;96502.80;1756616;80;21514;-55
2021/01/19 11:11:37;;;;;;;13.35;9.90;;;;;;;1.53;38.86;96491.50;1772840;80;21096;-55
2021/01/19 11:14:05;;;;;;;15.08;11.33;;;;;;;1.28;38.69;96497.06;1786950;80;21103;-55
2021/01/19 11:16:39;;;;;;;15.63;10.95;;;;;;;1.10;39.42;96506.62;1758175;80;21147;-55
2021/01/19 11:19:12;;;;;;;16.10;9.98;;;;;;;0.89;39.50;96506.47;1758588;80;21410;-55
2021/01/19 11:21:41;;;;;;;14.75;10.88;;;;;;;0.74;40.04;96495.50;1770788;78;21092;-55
2021/01/19 11:24:11;;;;;;;15.08;10.05;;;;;;;0.51;40.46;96497.08;1762235;80;21100;-55
2021/01/19 11:26:41;;;;;;;14.15;10.20;;;;;;;0.31;41.31;96499.41;1776350;80;21075;-58
2021/01/19 11:29:11;;;;;;;15.83;10.13;;;;;;;0.10;42.02;96471.56;1753073;81;21194;-55
2021/01/19 11:31:39;;;;;;;13.97;10.03;;;;;;;-0.19;42.29;96488.14;1770340;80;21383;-56
2021/01/19 11:34:09;;;;;;;15.95;10.70;;;;;;;-0.43;43.33;96494.80;1786505;80;21083;-55
2021/01/19 11:36:38;;;;;;;14.70;9.78;;;;;;;-0.66;43.38;96492.05;1786954;80;21048;-55
2021/01/19 11:39:07;;;;;;;15.68;9.78;;;;;;;-0.93;44.13;96491.48;1787515;80;21075;-55
2021/01/19 11:41:36;;;;;;;17.23;10.82;;;;;;;-1.15;44.86;96475.94;1762186;78;21135;-56
2021/01/19 11:44:05;;;;;;;17.45;10.03;;;;;;;-1.18;44.92;96487.47;1782684;80;22233;-56
2021/01/19 11:46:33;;;;;;;;;;;;;;;-1.16;45.06;96483.16;1766470;80;21128;-56
2021/01/19 11:49:03;;;;;;;35.55;18.92;;;;;;;-1.11;45.20;96482.61;1766606;80;20238;-56